createdAt,value
2019-03-10T00:00:22.210Z,0.00
2019-03-10T00:01:26.212Z,0.00
2019-03-10T00:03:53.949Z,0.00
2019-03-10T00:04:53.971Z,0.00
2019-03-10T00:06:14.953Z,0.00
2019-03-10T00:06:58.386Z,0.00
2019-03-10T00:07:54.454Z,0.00
2019-03-10T00:08:54.458Z,0.00
2019-03-10T00:09:54.451Z,0.00
2019-03-10T00:10:54.955Z,0.00
2019-03-10T00:11:58.951Z,0.00
2019-03-10T00:12:54.954Z,0.00
2019-03-10T00:13:54.951Z,0.00
2019-03-10T00:15:16.451Z,0.00
2019-03-10T00:15:55.452Z,0.00
2019-03-10T00:16:55.452Z,0.00
2019-03-10T00:17:58.951Z,0.00
2019-03-10T00:18:55.961Z,0.00
2019-03-10T00:19:56.009Z,0.00
2019-03-10T00:20:55.951Z,0.00
2019-03-10T00:21:55.950Z,0.00
2019-03-10T00:22:59.951Z,0.00
2019-03-10T00:23:56.449Z,0.00
2019-03-10T00:24:56.454Z,0.00
2019-03-10T00:25:56.463Z,0.00
2019-03-10T00:28:31.680Z,0.00
2019-03-10T00:29:28.188Z,0.00
2019-03-10T00:30:28.195Z,0.00
2019-03-10T00:31:28.689Z,0.00
2019-03-10T00:32:28.691Z,0.00
2019-03-10T00:33:32.690Z,0.00
2019-03-10T00:34:28.689Z,0.00
2019-03-10T00:35:29.189Z,0.00
2019-03-10T00:36:29.198Z,0.00
2019-03-10T00:37:29.191Z,0.00
2019-03-10T00:38:54.187Z,0.00
2019-03-10T00:39:29.693Z,0.00
2019-03-10T00:40:29.698Z,0.00
2019-03-10T00:41:29.688Z,0.00
2019-03-10T00:42:29.689Z,0.00
2019-03-10T00:43:51.191Z,0.00
2019-03-10T00:44:33.689Z,0.00
2019-03-10T00:45:30.203Z,0.00
2019-03-10T00:46:51.187Z,0.00
2019-03-10T00:49:01.925Z,0.00
2019-03-10T00:50:05.444Z,0.00
2019-03-10T00:51:01.931Z,0.00
2019-03-10T00:52:23.444Z,0.00
2019-03-10T00:53:03.866Z,0.00
2019-03-10T00:54:02.433Z,0.00
2019-03-10T00:55:02.431Z,0.00
2019-03-10T00:56:27.434Z,0.00
2019-03-10T00:57:03.865Z,0.00
2019-03-10T00:58:02.934Z,0.00
2019-03-10T00:59:02.927Z,0.00
2019-03-10T01:00:04.389Z,0.00
2019-03-10T01:01:27.932Z,0.00
2019-03-10T01:02:04.865Z,0.00
2019-03-10T01:03:03.435Z,0.00
2019-03-10T01:04:03.430Z,0.00
2019-03-10T01:05:03.433Z,0.00
2019-03-10T01:06:06.864Z,0.00
2019-03-10T01:07:07.432Z,0.00
2019-03-10T01:08:03.930Z,0.00
2019-03-10T01:09:03.940Z,0.00
2019-03-10T01:10:06.430Z,0.00
2019-03-10T01:11:04.432Z,0.00
2019-03-10T01:12:28.936Z,0.00
2019-03-10T01:13:04.437Z,0.00
2019-03-10T01:14:25.930Z,0.00
2019-03-10T01:15:25.930Z,0.00
2019-03-10T01:16:25.931Z,0.00
2019-03-10T01:17:29.431Z,0.00
2019-03-10T01:19:36.677Z,0.00
2019-03-10T01:22:08.152Z,0.00
2019-03-10T01:23:12.157Z,0.00
2019-03-10T01:24:08.161Z,0.00
2019-03-10T01:25:29.659Z,0.00
2019-03-10T01:26:08.665Z,0.00
2019-03-10T01:27:08.659Z,0.00
2019-03-10T01:28:08.658Z,0.00
2019-03-10T01:29:13.216Z,0.00
2019-03-10T01:30:09.164Z,0.00
2019-03-10T01:31:09.157Z,0.00
2019-03-10T01:32:09.158Z,0.00
2019-03-10T01:33:11.657Z,0.00
2019-03-10T01:34:09.661Z,0.00
2019-03-10T01:35:12.657Z,0.00
2019-03-10T01:36:09.659Z,0.00
2019-03-10T01:37:10.155Z,0.00
2019-03-10T01:38:10.157Z,0.00
2019-03-10T01:39:10.156Z,0.00
2019-03-10T01:41:46.385Z,0.00
2019-03-10T01:42:45.451Z,0.00
2019-03-10T01:43:45.448Z,0.00
2019-03-10T01:44:45.953Z,0.00
2019-03-10T01:45:49.452Z,0.00
2019-03-10T01:47:06.957Z,0.00
2019-03-10T01:47:45.950Z,0.00
2019-03-10T01:48:46.450Z,0.00
2019-03-10T01:49:46.450Z,0.00
2019-03-10T01:50:46.449Z,0.00
2019-03-10T01:51:51.387Z,0.00
2019-03-10T01:52:48.419Z,0.00
2019-03-10T01:53:46.957Z,0.00
2019-03-10T01:54:46.955Z,0.00
2019-03-10T01:55:46.948Z,0.00
2019-03-10T01:56:50.951Z,0.00
2019-03-10T01:57:47.452Z,0.00
2019-03-10T01:58:48.385Z,0.00
2019-03-10T01:59:50.408Z,0.00
2019-03-10T02:02:25.512Z,0.00
2019-03-10T02:03:19.149Z,0.00
2019-03-10T02:04:19.147Z,0.00
2019-03-10T02:05:40.657Z,0.00
2019-03-10T02:06:19.649Z,0.00
2019-03-10T02:07:23.649Z,0.00
2019-03-10T02:08:19.649Z,0.00
2019-03-10T02:09:20.154Z,0.00
2019-03-10T02:10:20.153Z,0.00
2019-03-10T02:11:20.153Z,0.00
2019-03-10T02:12:20.155Z,0.00
2019-03-10T02:14:55.077Z,0.00
2019-03-10T02:15:55.081Z,0.00
2019-03-10T02:16:55.085Z,0.00
2019-03-10T02:17:55.583Z,0.00
2019-03-10T02:18:59.588Z,0.00
2019-03-10T02:19:55.581Z,0.00
2019-03-10T02:21:16.583Z,0.00
2019-03-10T02:23:27.354Z,0.00
2019-03-10T02:24:30.825Z,0.00
2019-03-10T02:25:27.319Z,0.00
2019-03-10T02:26:48.825Z,0.00
2019-03-10T02:27:28.759Z,0.00
2019-03-10T02:28:27.886Z,0.00
2019-03-10T02:29:52.825Z,0.00
2019-03-10T02:30:28.332Z,0.00
2019-03-10T02:31:28.329Z,0.00
2019-03-10T02:32:28.325Z,0.00
2019-03-10T02:33:28.325Z,0.00
2019-03-10T02:34:32.326Z,0.00
2019-03-10T02:35:30.260Z,0.00
2019-03-10T02:36:28.826Z,0.00
2019-03-10T02:37:28.833Z,0.00
2019-03-10T02:38:50.323Z,0.00
2019-03-10T02:39:29.333Z,0.00
2019-03-10T02:40:54.325Z,0.00
2019-03-10T02:41:29.334Z,0.00
2019-03-10T02:44:22.566Z,0.00
2019-03-10T02:45:22.594Z,0.00
2019-03-10T02:47:57.255Z,0.00
2019-03-10T02:48:36.261Z,0.00
2019-03-10T02:49:36.261Z,0.00
2019-03-10T02:50:57.763Z,0.00
2019-03-10T02:52:01.259Z,0.00
2019-03-10T02:52:36.761Z,0.00
2019-03-10T02:53:37.694Z,0.00
2019-03-10T02:54:58.264Z,0.00
2019-03-10T02:55:37.266Z,0.00
2019-03-10T02:56:37.264Z,0.00
2019-03-10T02:57:41.265Z,0.00
2019-03-10T03:00:08.991Z,0.00
2019-03-10T03:01:09.000Z,0.00
2019-03-10T03:02:09.010Z,0.00
2019-03-10T03:03:13.036Z,0.00
2019-03-10T03:04:09.497Z,0.00
2019-03-10T03:05:09.498Z,0.00
2019-03-10T03:06:09.498Z,0.00
2019-03-10T03:07:10.001Z,0.00
2019-03-10T03:08:16.444Z,0.00
2019-03-10T03:09:09.997Z,0.00
2019-03-10T03:10:09.997Z,0.00
2019-03-10T03:11:11.496Z,0.00
2019-03-10T03:12:10.499Z,0.00
2019-03-10T03:13:14.497Z,0.00
2019-03-10T03:14:10.505Z,0.00
2019-03-10T03:16:42.232Z,0.00
2019-03-10T03:17:42.238Z,0.00
2019-03-10T03:18:46.239Z,0.00
2019-03-10T03:19:44.189Z,0.00
2019-03-10T03:20:42.737Z,0.00
2019-03-10T03:21:43.871Z,0.00
2019-03-10T03:22:42.740Z,0.00
2019-03-10T03:23:46.239Z,0.00
2019-03-10T03:24:43.245Z,0.00
2019-03-10T03:25:43.237Z,0.00
2019-03-10T03:26:43.306Z,0.00
2019-03-10T03:27:43.253Z,0.00
2019-03-10T03:28:47.241Z,0.00
2019-03-10T03:29:43.748Z,0.00
2019-03-10T03:30:43.738Z,0.00
2019-03-10T03:31:43.742Z,0.00
2019-03-10T03:32:44.246Z,0.00
2019-03-10T03:33:44.246Z,0.00
2019-03-10T03:34:48.315Z,0.00
2019-03-10T03:35:44.238Z,0.00
2019-03-10T03:36:44.738Z,0.00
2019-03-10T03:40:53.518Z,0.00
2019-03-10T03:41:47.521Z,0.00
2019-03-10T03:42:47.528Z,0.00
2019-03-10T03:43:48.033Z,0.00
2019-03-10T03:44:50.015Z,0.00
2019-03-10T03:45:48.019Z,0.00
2019-03-10T03:48:43.743Z,0.00
2019-03-10T03:49:22.756Z,0.00
2019-03-10T03:50:22.749Z,0.00
2019-03-10T03:51:44.317Z,0.00
2019-03-10T03:52:26.751Z,0.00
2019-03-10T03:53:23.249Z,0.00
2019-03-10T03:54:23.250Z,0.00
2019-03-10T03:55:23.758Z,0.00
2019-03-10T03:56:23.749Z,0.00
2019-03-10T03:57:27.253Z,0.00
2019-03-10T03:58:44.748Z,0.00
2019-03-10T03:59:45.252Z,0.00
2019-03-10T04:00:45.250Z,0.00
2019-03-10T04:01:24.248Z,0.00
2019-03-10T04:03:59.718Z,0.00
2019-03-10T04:04:59.731Z,0.00
2019-03-10T04:05:59.734Z,0.00
2019-03-10T04:07:01.169Z,0.00
2019-03-10T04:08:04.226Z,0.00
2019-03-10T04:09:00.233Z,0.00
2019-03-10T04:10:00.440Z,0.00
2019-03-10T04:11:00.225Z,0.00
2019-03-10T04:13:35.467Z,0.00
2019-03-10T04:14:31.966Z,0.00
2019-03-10T04:15:53.478Z,0.00
2019-03-10T04:16:32.471Z,0.00
2019-03-10T04:17:32.477Z,0.00
2019-03-10T04:18:40.407Z,0.00
2019-03-10T04:19:32.966Z,0.00
2019-03-10T04:20:53.967Z,0.00
2019-03-10T04:21:32.975Z,0.00
2019-03-10T04:22:32.972Z,0.00
2019-03-10T04:23:57.973Z,0.00
2019-03-10T04:24:54.466Z,0.00
2019-03-10T04:25:54.466Z,0.00
2019-03-10T04:26:33.466Z,0.00
2019-03-10T04:27:54.973Z,0.00
2019-03-10T04:28:35.399Z,0.00
2019-03-10T04:29:37.966Z,0.00
2019-03-10T04:30:33.966Z,0.00
2019-03-10T04:33:05.703Z,0.00
2019-03-10T04:34:07.713Z,0.00
2019-03-10T04:35:09.713Z,0.00
2019-03-10T04:36:06.232Z,0.00
2019-03-10T04:37:06.207Z,0.00
2019-03-10T04:38:06.209Z,0.00
2019-03-10T04:39:06.214Z,0.00
2019-03-10T04:40:06.707Z,0.00
2019-03-10T04:41:12.142Z,0.00
2019-03-10T04:42:06.707Z,0.00
2019-03-10T04:43:06.707Z,0.00
2019-03-10T04:44:07.215Z,0.00
2019-03-10T04:45:07.207Z,0.00
2019-03-10T04:46:07.208Z,0.00
2019-03-10T04:47:10.714Z,0.00
2019-03-10T04:48:07.715Z,0.00
2019-03-10T04:49:07.706Z,0.00
2019-03-10T04:50:07.709Z,0.00
2019-03-10T04:51:07.707Z,0.00
2019-03-10T04:52:32.706Z,0.00
2019-03-10T04:53:08.206Z,0.00
2019-03-10T04:54:08.208Z,0.00
2019-03-10T04:55:08.220Z,0.00
2019-03-10T04:57:43.436Z,0.00
2019-03-10T04:58:39.951Z,0.00
2019-03-10T04:59:39.949Z,0.00
2019-03-10T05:02:32.686Z,0.00
2019-03-10T05:03:14.690Z,0.00
2019-03-10T05:04:11.656Z,0.00
2019-03-10T05:05:12.188Z,0.00
2019-03-10T05:06:12.192Z,0.00
2019-03-10T05:07:12.215Z,0.00
2019-03-10T05:08:16.224Z,0.00
2019-03-10T05:09:12.187Z,0.00
2019-03-10T05:10:12.188Z,0.00
2019-03-10T05:14:18.849Z,0.00
2019-03-10T05:15:15.345Z,0.00
2019-03-10T05:16:15.347Z,0.00
2019-03-10T05:18:47.083Z,0.00
2019-03-10T05:20:11.585Z,0.00
2019-03-10T05:20:47.086Z,0.00
2019-03-10T05:21:47.585Z,0.00
2019-03-10T05:22:47.585Z,0.00
2019-03-10T05:23:47.592Z,0.00
2019-03-10T05:25:12.586Z,0.00
2019-03-10T05:25:48.086Z,0.00
2019-03-10T05:26:48.087Z,0.00
2019-03-10T05:27:48.083Z,0.00
2019-03-10T05:28:48.085Z,0.00
2019-03-10T05:29:48.585Z,0.00
2019-03-10T05:30:52.584Z,0.00
2019-03-10T05:31:48.585Z,0.00
2019-03-10T05:32:48.585Z,4.00
2019-03-10T05:33:49.086Z,4.00
2019-03-10T05:34:49.085Z,0.00
2019-03-10T05:35:49.086Z,0.00
2019-03-10T05:36:53.519Z,4.00
2019-03-10T05:37:54.019Z,4.00
2019-03-10T05:38:49.595Z,4.00
2019-03-10T05:39:49.588Z,8.00
2019-03-10T05:40:49.591Z,4.00
2019-03-10T05:41:54.085Z,8.00
2019-03-10T05:42:50.085Z,8.00
2019-03-10T05:43:50.091Z,8.00
2019-03-10T05:44:50.087Z,8.00
2019-03-10T05:45:50.616Z,12.00
2019-03-10T05:46:50.584Z,8.00
2019-03-10T05:47:54.087Z,12.00
2019-03-10T05:48:50.583Z,12.00
2019-03-10T05:49:51.091Z,12.00
2019-03-10T05:50:51.084Z,16.00
2019-03-10T05:52:12.084Z,16.00
2019-03-10T05:52:54.091Z,20.00
2019-03-10T05:54:12.587Z,20.00
2019-03-10T05:55:12.592Z,24.00
2019-03-10T05:55:52.518Z,24.00
2019-03-10T05:56:51.583Z,28.00
2019-03-10T05:57:55.083Z,32.00
2019-03-10T05:58:52.081Z,28.00
2019-03-10T05:59:52.094Z,32.00
2019-03-10T06:00:52.083Z,32.00
2019-03-10T06:01:52.583Z,36.00
2019-03-10T06:02:56.587Z,36.00
2019-03-10T06:03:52.588Z,40.00
2019-03-10T06:04:52.583Z,36.00
2019-03-10T06:05:53.082Z,40.00
2019-03-10T06:06:53.084Z,44.00
2019-03-10T06:07:53.086Z,48.00
2019-03-10T06:09:17.586Z,48.00
2019-03-10T06:09:53.591Z,52.00
2019-03-10T06:10:53.583Z,56.00
2019-03-10T06:11:53.583Z,60.00
2019-03-10T06:12:53.582Z,68.00
2019-03-10T06:13:57.582Z,72.00
2019-03-10T06:15:15.090Z,80.00
2019-03-10T06:16:15.081Z,88.00
2019-03-10T06:16:54.082Z,88.00
2019-03-10T06:18:15.588Z,92.00
2019-03-10T06:18:54.579Z,100.00
2019-03-10T06:19:58.580Z,104.00
2019-03-10T06:20:54.593Z,108.00
2019-03-10T06:23:26.816Z,116.00
2019-03-10T06:26:01.675Z,140.00
2019-03-10T06:26:58.190Z,140.00
2019-03-10T06:28:20.115Z,144.00
2019-03-10T06:29:19.680Z,152.00
2019-03-10T06:29:58.680Z,144.00
2019-03-10T06:31:02.680Z,156.00
2019-03-10T06:31:58.680Z,172.00
2019-03-10T06:33:01.180Z,184.00
2019-03-10T06:33:59.180Z,196.00
2019-03-10T06:34:59.181Z,204.00
2019-03-10T06:35:59.181Z,208.00
2019-03-10T06:37:02.680Z,204.00
2019-03-10T06:37:59.679Z,200.00
2019-03-10T06:38:59.680Z,204.00
2019-03-10T06:39:59.679Z,196.00
2019-03-10T06:41:00.179Z,196.00
2019-03-10T06:42:04.179Z,188.00
2019-03-10T06:43:00.179Z,188.00
2019-03-10T06:44:21.272Z,184.00
2019-03-10T06:45:00.679Z,180.00
2019-03-10T06:46:00.679Z,196.00
2019-03-10T06:47:25.179Z,196.00
2019-03-10T06:48:00.688Z,192.00
2019-03-10T06:49:01.185Z,188.00
2019-03-10T06:50:01.179Z,192.00
2019-03-10T06:51:01.205Z,192.00
2019-03-10T06:52:01.180Z,196.00
2019-03-10T06:53:26.179Z,208.00
2019-03-10T06:54:01.686Z,212.00
2019-03-10T06:55:01.683Z,200.00
2019-03-10T06:56:01.679Z,208.00
2019-03-10T06:58:36.409Z,224.00
2019-03-10T06:59:33.427Z,232.00
2019-03-10T07:00:33.419Z,244.00
2019-03-10T07:01:33.918Z,248.00
2019-03-10T07:02:34.885Z,244.00
2019-03-10T07:03:37.918Z,232.00
2019-03-10T07:04:33.914Z,224.00
2019-03-10T07:05:34.418Z,228.00
2019-03-10T07:06:37.386Z,240.00
2019-03-10T07:07:34.418Z,244.00
2019-03-10T07:08:34.421Z,236.00
2019-03-10T07:09:59.923Z,216.00
2019-03-10T07:10:34.920Z,200.00
2019-03-10T07:11:34.919Z,176.00
2019-03-10T07:12:34.917Z,180.00
2019-03-10T07:13:35.442Z,200.00
2019-03-10T07:14:35.417Z,228.00
2019-03-10T07:15:46.352Z,252.00
2019-03-10T07:16:35.419Z,276.00
2019-03-10T07:17:35.961Z,296.00
2019-03-10T07:18:35.920Z,284.00
2019-03-10T07:19:35.926Z,260.00
2019-03-10T07:20:39.926Z,264.00
2019-03-10T07:21:36.422Z,296.00
2019-03-10T07:22:36.417Z,344.00
2019-03-10T07:23:36.419Z,384.00
2019-03-10T07:24:36.413Z,436.00
2019-03-10T07:25:36.917Z,464.00
2019-03-10T07:26:39.932Z,484.00
2019-03-10T07:27:36.917Z,536.00
2019-03-10T07:28:36.916Z,580.00
2019-03-10T07:29:37.417Z,600.00
2019-03-10T07:30:37.419Z,620.00
2019-03-10T07:31:39.916Z,628.00
2019-03-10T07:32:37.416Z,580.00
2019-03-10T07:33:37.917Z,592.00
2019-03-10T07:34:37.919Z,632.00
2019-03-10T07:35:37.920Z,536.00
2019-03-10T07:37:02.417Z,444.00
2019-03-10T07:37:38.417Z,460.00
2019-03-10T07:40:10.270Z,772.00
2019-03-10T07:42:45.128Z,404.00
2019-03-10T07:44:03.137Z,336.00
2019-03-10T07:44:44.071Z,484.00
2019-03-10T07:45:42.139Z,692.00
2019-03-10T07:46:42.141Z,996.00
2019-03-10T07:47:46.638Z,1156.00
2019-03-10T07:48:42.645Z,888.00
2019-03-10T07:49:42.635Z,624.00
2019-03-10T07:50:42.636Z,528.00
2019-03-10T07:51:43.137Z,628.00
2019-03-10T07:52:43.136Z,832.00
2019-03-10T07:53:46.635Z,1016.00
2019-03-10T07:54:43.140Z,952.00
2019-03-10T07:55:44.570Z,984.00
2019-03-10T07:56:43.636Z,1192.00
2019-03-10T07:57:43.636Z,1540.00
2019-03-10T07:58:47.636Z,1616.00
2019-03-10T07:59:44.136Z,1436.00
2019-03-10T08:00:44.150Z,1376.00
2019-03-10T08:01:44.136Z,1488.00
2019-03-10T08:02:44.135Z,1548.00
2019-03-10T08:04:10.590Z,1352.00
2019-03-10T08:04:44.644Z,936.00
2019-03-10T08:05:44.636Z,664.00
2019-03-10T08:06:44.635Z,628.00
2019-03-10T08:07:44.635Z,824.00
2019-03-10T08:08:45.134Z,1004.00
2019-03-10T08:09:48.635Z,1128.00
2019-03-10T08:10:45.138Z,1172.00
2019-03-10T08:11:45.145Z,1140.00
2019-03-10T08:12:45.636Z,1156.00
2019-03-10T08:13:45.637Z,1192.00
2019-03-10T08:14:45.640Z,1084.00
2019-03-10T08:15:49.644Z,936.00
2019-03-10T08:16:46.136Z,956.00
2019-03-10T08:19:17.518Z,928.00
2019-03-10T08:20:17.503Z,1060.00
2019-03-10T08:21:21.501Z,1060.00
2019-03-10T08:22:17.997Z,1048.00
2019-03-10T08:23:39.003Z,1120.00
2019-03-10T08:24:39.044Z,1288.00
2019-03-10T08:25:18.006Z,1156.00
2019-03-10T08:26:42.499Z,1284.00
2019-03-10T08:27:39.500Z,1300.00
2019-03-10T08:28:20.309Z,1336.00
2019-03-10T08:29:18.505Z,1116.00
2019-03-10T08:30:18.500Z,1020.00
2019-03-10T08:32:53.781Z,964.00
2019-03-10T08:33:50.274Z,1160.00
2019-03-10T08:34:50.243Z,1200.00
2019-03-10T08:37:22.474Z,900.00
2019-03-10T08:38:26.483Z,1236.00
2019-03-10T08:39:22.482Z,1592.00
2019-03-10T08:40:22.483Z,1500.00
2019-03-10T08:41:22.983Z,1392.00
2019-03-10T08:42:23.015Z,1412.00
2019-03-10T08:43:22.984Z,1516.00
2019-03-10T08:44:26.483Z,1628.00
2019-03-10T08:45:23.482Z,1676.00
2019-03-10T08:46:23.483Z,1628.00
2019-03-10T08:47:23.494Z,1484.00
2019-03-10T08:48:23.486Z,1308.00
2019-03-10T08:49:27.482Z,1512.00
2019-03-10T08:50:23.982Z,1404.00
2019-03-10T08:51:23.989Z,1116.00
2019-03-10T08:52:24.011Z,1340.00
2019-03-10T08:53:24.485Z,1172.00
2019-03-10T08:54:24.482Z,1100.00
2019-03-10T08:55:28.482Z,1016.00
2019-03-10T08:56:24.482Z,1124.00
2019-03-10T08:57:24.991Z,1156.00
2019-03-10T08:58:24.981Z,1188.00
2019-03-10T08:59:45.980Z,1184.00
2019-03-10T09:00:24.986Z,1088.00
2019-03-10T09:01:28.485Z,1032.00
2019-03-10T09:02:25.487Z,1012.00
2019-03-10T09:03:25.483Z,900.00
2019-03-10T09:04:25.490Z,756.00
2019-03-10T09:05:46.982Z,752.00
2019-03-10T09:06:29.982Z,732.00
2019-03-10T09:07:25.985Z,904.00
2019-03-10T09:08:26.047Z,1112.00
2019-03-10T09:09:26.479Z,1124.00
2019-03-10T09:10:26.481Z,1160.00
2019-03-10T09:11:26.486Z,1112.00
2019-03-10T09:12:30.487Z,1252.00
2019-03-10T09:13:26.981Z,1200.00
2019-03-10T09:14:26.982Z,1080.00
2019-03-10T09:15:26.984Z,1232.00
2019-03-10T09:16:26.982Z,1296.00
2019-03-10T09:17:50.982Z,1424.00
2019-03-10T09:18:48.487Z,1616.00
2019-03-10T09:19:27.482Z,1724.00
2019-03-10T09:20:27.524Z,1564.00
2019-03-10T09:21:31.415Z,1624.00
2019-03-10T09:22:29.454Z,1992.00
2019-03-10T09:23:52.990Z,2348.00
2019-03-10T09:24:27.980Z,2184.00
2019-03-10T09:25:49.008Z,2168.00
2019-03-10T09:26:28.478Z,2264.00
2019-03-10T09:27:51.418Z,2152.00
2019-03-10T09:28:28.487Z,1820.00
2019-03-10T09:31:03.218Z,1656.00
2019-03-10T09:32:24.220Z,1560.00
2019-03-10T09:33:03.230Z,1516.00
2019-03-10T09:34:03.750Z,1284.00
2019-03-10T09:35:27.723Z,1616.00
2019-03-10T09:36:03.732Z,1504.00
2019-03-10T09:37:03.727Z,2028.00
2019-03-10T09:38:04.256Z,2052.00
2019-03-10T09:39:04.232Z,2072.00
2019-03-10T09:40:04.228Z,1892.00
2019-03-10T09:41:08.722Z,2092.00
2019-03-10T09:42:04.729Z,1756.00
2019-03-10T09:43:25.728Z,1648.00
2019-03-10T09:44:04.723Z,1860.00
2019-03-10T09:45:04.723Z,1608.00
2019-03-10T09:46:29.720Z,1772.00
2019-03-10T09:47:05.222Z,1720.00
2019-03-10T09:48:26.255Z,1808.00
2019-03-10T09:49:26.223Z,1552.00
2019-03-10T09:50:05.747Z,1844.00
2019-03-10T09:51:05.746Z,1812.00
2019-03-10T09:52:09.719Z,2052.00
2019-03-10T09:53:05.729Z,2092.00
2019-03-10T09:54:06.225Z,2460.00
2019-03-10T09:55:06.225Z,2536.00
2019-03-10T09:56:06.225Z,2460.00
2019-03-10T09:57:06.230Z,2428.00
2019-03-10T09:58:09.722Z,2092.00
2019-03-10T09:59:27.721Z,1588.00
2019-03-10T10:00:06.722Z,3348.00
2019-03-10T10:01:06.718Z,6368.00
2019-03-10T10:02:09.222Z,4588.00
2019-03-10T10:03:10.719Z,5364.00
2019-03-10T10:04:07.222Z,4452.00
2019-03-10T10:05:07.221Z,4556.00
2019-03-10T10:07:59.953Z,2472.00
2019-03-10T10:09:03.467Z,2444.00
2019-03-10T10:09:38.963Z,2436.00
2019-03-10T10:10:39.469Z,3192.00
2019-03-10T10:11:39.463Z,4772.00
2019-03-10T10:12:39.458Z,3864.00
2019-03-10T10:13:43.463Z,3728.00
2019-03-10T10:15:00.963Z,3160.00
2019-03-10T10:16:00.962Z,3092.00
2019-03-10T10:17:00.963Z,2984.00
2019-03-10T10:18:00.962Z,2492.00
2019-03-10T10:19:04.962Z,1832.00
2019-03-10T10:19:40.465Z,1956.00
2019-03-10T10:20:40.464Z,1880.00
2019-03-10T10:21:41.435Z,2000.00
2019-03-10T10:24:15.192Z,1312.00
2019-03-10T10:25:33.196Z,1356.00
2019-03-10T10:26:12.198Z,1100.00
2019-03-10T10:27:33.697Z,1220.00
2019-03-10T10:28:12.701Z,1264.00
2019-03-10T10:29:16.705Z,816.00
2019-03-10T10:30:12.697Z,756.00
2019-03-10T10:31:13.990Z,1332.00
2019-03-10T10:32:13.199Z,2584.00
2019-03-10T10:33:13.197Z,3244.00
2019-03-10T10:34:13.194Z,4608.00
2019-03-10T10:35:17.702Z,4388.00
2019-03-10T10:36:15.151Z,2868.00
2019-03-10T10:37:35.604Z,2508.00
2019-03-10T10:38:18.743Z,3168.00
2019-03-10T10:39:13.701Z,3308.00
2019-03-10T10:40:38.697Z,4084.00
2019-03-10T10:41:16.631Z,3212.00
2019-03-10T10:42:14.197Z,2092.00
2019-03-10T10:43:14.197Z,1356.00
2019-03-10T10:44:14.699Z,1172.00
2019-03-10T10:45:14.702Z,2664.00
2019-03-10T10:46:39.695Z,3160.00
2019-03-10T10:47:14.697Z,3908.00
2019-03-10T10:48:16.204Z,5928.00
2019-03-10T10:49:17.203Z,6052.00
2019-03-10T10:50:15.197Z,8516.00
2019-03-10T10:51:15.208Z,10468.00
2019-03-10T10:52:40.700Z,10976.00
2019-03-10T10:53:15.712Z,11820.00
2019-03-10T10:54:15.700Z,4988.00
2019-03-10T10:55:15.704Z,6296.00
2019-03-10T10:56:16.196Z,4464.00
2019-03-10T10:57:16.196Z,3236.00
2019-03-10T10:58:19.697Z,4244.00
2019-03-10T10:59:16.199Z,6220.00
2019-03-10T11:00:16.698Z,6672.00
2019-03-10T11:01:16.696Z,14212.00
2019-03-10T11:02:16.696Z,13264.00
2019-03-10T11:03:20.702Z,6516.00
2019-03-10T11:04:17.200Z,4960.00
2019-03-10T11:05:17.203Z,12484.00
2019-03-10T11:06:19.586Z,13148.00
2019-03-10T11:07:17.196Z,11616.00
2019-03-10T11:08:17.698Z,14360.00
2019-03-10T11:09:20.704Z,12112.00
2019-03-10T11:10:17.696Z,12828.00
2019-03-10T11:11:17.710Z,14480.00
2019-03-10T11:12:18.224Z,10292.00
2019-03-10T11:13:18.196Z,15596.00
2019-03-10T11:14:21.696Z,7096.00
2019-03-10T11:15:39.212Z,5700.00
2019-03-10T11:16:18.696Z,5920.00
2019-03-10T11:17:18.696Z,4696.00
2019-03-10T11:18:18.696Z,5768.00
2019-03-10T11:19:18.696Z,4720.00
2019-03-10T11:20:22.698Z,5616.00
2019-03-10T11:21:20.633Z,5056.00
2019-03-10T11:22:42.633Z,5208.00
2019-03-10T11:23:19.198Z,5552.00
2019-03-10T11:24:19.695Z,5300.00
2019-03-10T11:25:19.701Z,8240.00
2019-03-10T11:26:22.696Z,12408.00
2019-03-10T11:27:19.701Z,16144.00
2019-03-10T11:29:51.440Z,81280.00
2019-03-10T11:30:51.449Z,26656.00
2019-03-10T11:31:55.449Z,81568.00
2019-03-10T11:32:51.948Z,109760.00
2019-03-10T11:33:51.948Z,110048.00
2019-03-10T11:34:51.948Z,20832.00
2019-03-10T11:35:53.587Z,34272.00
2019-03-10T11:36:52.445Z,26240.00
2019-03-10T11:37:56.417Z,120160.00
2019-03-10T11:38:52.448Z,62496.00
2019-03-10T11:39:52.448Z,17408.00
2019-03-10T11:40:53.884Z,14180.00
2019-03-10T11:41:52.954Z,3468.00
2019-03-10T11:42:56.448Z,3032.00
2019-03-10T11:43:52.947Z,2604.00
2019-03-10T11:44:52.950Z,1864.00
2019-03-10T11:45:53.449Z,1396.00
2019-03-10T11:47:00.383Z,1160.00
2019-03-10T11:47:53.450Z,1032.00
2019-03-10T11:49:02.957Z,2224.00
2019-03-10T11:49:53.949Z,3824.00
2019-03-10T11:50:53.949Z,2080.00
2019-03-10T11:51:53.946Z,2580.00
2019-03-10T11:52:53.956Z,1796.00
2019-03-10T11:53:54.449Z,1092.00
2019-03-10T11:54:57.449Z,1748.00
2019-03-10T11:55:54.449Z,1332.00
2019-03-10T11:56:54.450Z,1240.00
2019-03-10T11:57:54.949Z,1456.00
2019-03-10T11:58:54.170Z,1604.00
2019-03-10T11:59:58.980Z,1984.00
2019-03-10T12:00:54.949Z,2556.00
2019-03-10T12:02:15.919Z,3464.00
2019-03-10T12:02:55.459Z,4496.00
2019-03-10T12:03:55.449Z,5708.00
2019-03-10T12:04:55.449Z,5212.00
2019-03-10T12:05:58.949Z,11016.00
2019-03-10T12:06:55.949Z,45344.00
2019-03-10T12:07:55.947Z,34400.00
2019-03-10T12:08:55.948Z,10096.00
2019-03-10T12:09:56.456Z,119712.00
2019-03-10T12:10:59.961Z,121056.00
2019-03-10T12:11:56.450Z,7036.00
2019-03-10T12:12:56.452Z,9084.00
2019-03-10T12:13:56.949Z,94688.00
2019-03-10T12:14:56.949Z,80288.00
2019-03-10T12:15:56.954Z,56288.00
2019-03-10T12:17:00.949Z,14496.00
2019-03-10T12:18:18.452Z,42336.00
2019-03-10T12:18:57.454Z,67008.00
2019-03-10T12:19:57.451Z,12684.00
2019-03-10T12:20:57.449Z,14156.00
2019-03-10T12:21:57.950Z,13452.00
2019-03-10T12:23:00.952Z,3024.00
2019-03-10T12:23:57.951Z,2020.00
2019-03-10T12:24:57.950Z,1928.00
2019-03-10T12:29:26.136Z,656.00
2019-03-10T12:30:01.131Z,560.00
2019-03-10T12:31:01.131Z,432.00
2019-03-10T12:32:01.631Z,420.00
2019-03-10T12:33:01.632Z,476.00
2019-03-10T12:34:05.514Z,740.00
2019-03-10T12:35:01.631Z,1008.00
2019-03-10T12:36:02.171Z,1412.00
2019-03-10T12:37:02.132Z,2484.00
2019-03-10T12:38:02.137Z,4112.00
2019-03-10T12:39:06.134Z,6268.00
2019-03-10T12:40:02.632Z,11516.00
2019-03-10T12:41:02.636Z,16864.00
2019-03-10T12:42:02.638Z,18368.00
2019-03-10T12:43:02.632Z,94848.00
2019-03-10T12:44:04.067Z,56544.00
2019-03-10T12:45:06.143Z,98176.00
2019-03-10T12:46:03.156Z,120320.00
2019-03-10T12:47:03.136Z,121760.00
2019-03-10T12:48:03.635Z,88736.00
2019-03-10T12:49:03.632Z,26848.00
2019-03-10T12:50:07.632Z,12000.00
2019-03-10T12:51:03.628Z,9280.00
2019-03-10T12:52:04.133Z,11624.00
2019-03-10T12:53:04.132Z,16620.00
2019-03-10T12:54:04.132Z,30176.00
2019-03-10T12:55:04.147Z,21152.00
2019-03-10T12:57:39.899Z,97632.00
2019-03-10T12:58:41.340Z,85824.00
2019-03-10T12:59:39.906Z,15292.00
2019-03-10T13:01:06.076Z,103584.00
2019-03-10T13:01:42.913Z,98336.00
2019-03-10T13:03:01.417Z,97216.00
2019-03-10T13:03:40.490Z,10168.00
2019-03-10T13:04:40.908Z,4784.00
2019-03-10T13:06:01.906Z,4308.00
2019-03-10T13:06:44.406Z,3768.00
2019-03-10T13:07:40.907Z,2592.00
2019-03-10T13:09:02.407Z,3440.00
2019-03-10T13:09:41.407Z,3628.00
2019-03-10T13:10:41.407Z,3096.00
2019-03-10T13:11:45.409Z,3924.00
2019-03-10T13:13:04.905Z,10436.00
2019-03-10T13:14:02.908Z,15608.00
2019-03-10T13:16:13.412Z,115904.00
2019-03-10T13:17:16.920Z,104192.00
2019-03-10T13:18:13.418Z,7836.00
2019-03-10T13:20:45.175Z,102464.00
2019-03-10T13:21:45.282Z,102496.00
2019-03-10T13:22:48.685Z,103136.00
2019-03-10T13:24:06.693Z,104896.00
2019-03-10T13:24:45.701Z,106304.00
2019-03-10T13:25:45.681Z,45472.00
2019-03-10T13:26:45.681Z,112928.00
2019-03-10T13:27:49.681Z,112064.00
2019-03-10T13:28:46.181Z,110048.00
2019-03-10T13:29:46.213Z,87680.00
2019-03-10T13:30:46.181Z,16336.00
2019-03-10T13:31:46.682Z,34624.00
2019-03-10T13:32:46.682Z,7632.00
2019-03-10T13:34:11.682Z,4292.00
2019-03-10T13:34:46.682Z,3924.00
2019-03-10T13:35:47.184Z,2308.00
2019-03-10T13:36:47.183Z,4408.00
2019-03-10T13:38:10.408Z,9496.00
2019-03-10T13:38:47.183Z,4628.00
2019-03-10T13:39:50.682Z,5196.00
2019-03-10T13:40:47.684Z,3624.00